createdAt,value
2018-08-20T00:00:33.087Z,94298.25
2018-08-20T00:03:01.025Z,94291.09
2018-08-20T00:05:30.322Z,94294.78
2018-08-20T00:07:57.915Z,94292.92
2018-08-20T00:10:25.594Z,94292.13
2018-08-20T00:12:53.198Z,94286.52
2018-08-20T00:15:21.077Z,94296.47
2018-08-20T00:17:48.650Z,94299.52
2018-08-20T00:20:16.195Z,94294.09
2018-08-20T00:22:43.747Z,94301.38
2018-08-20T00:25:16.002Z,94294.83
2018-08-20T00:27:44.095Z,94290.26
2018-08-20T00:30:12.402Z,94280.55
2018-08-20T00:32:41.743Z,94287.28
2018-08-20T00:35:10.311Z,94286.11
2018-08-20T00:37:37.858Z,94287.09
2018-08-20T00:40:05.411Z,94282.24
2018-08-20T00:42:32.949Z,94282.88
2018-08-20T00:45:00.487Z,94288.21
2018-08-20T00:47:27.999Z,94290.58
2018-08-20T00:49:55.550Z,94285.34
2018-08-20T00:52:23.091Z,94295.27
2018-08-20T00:54:50.610Z,94290.54
2018-08-20T00:57:18.149Z,94288.52
2018-08-20T00:59:45.686Z,94285.13
2018-08-20T01:02:13.279Z,94283.49
2018-08-20T01:04:40.824Z,94288.22
2018-08-20T01:07:08.364Z,94287.63
2018-08-20T01:09:35.904Z,94290.77
2018-08-20T01:12:03.506Z,94285.42
2018-08-20T01:14:31.042Z,94283.94
2018-08-20T01:16:58.620Z,94282.35
2018-08-20T01:19:26.169Z,94289.20
2018-08-20T01:21:53.706Z,94293.96
2018-08-20T01:24:21.217Z,94289.20
2018-08-20T01:26:49.446Z,94290.14
2018-08-20T01:29:16.989Z,94282.16
2018-08-20T01:31:45.168Z,94287.38
2018-08-20T01:34:13.720Z,94292.90
2018-08-20T01:36:42.837Z,94287.47
2018-08-20T01:39:11.356Z,94290.14
2018-08-20T01:41:38.877Z,94296.73
2018-08-20T01:44:06.582Z,94292.02
2018-08-20T01:46:34.099Z,94298.03
2018-08-20T01:49:01.635Z,94290.09
2018-08-20T01:51:29.149Z,94289.09
2018-08-20T01:53:56.686Z,94286.11
2018-08-20T01:56:24.223Z,94284.70
2018-08-20T01:58:51.721Z,94289.34
2018-08-20T02:01:19.475Z,94284.51
2018-08-20T02:03:47.083Z,94286.14
2018-08-20T02:06:14.611Z,94286.24
2018-08-20T02:08:42.191Z,94288.34
2018-08-20T02:11:09.753Z,94283.73
2018-08-20T02:13:37.450Z,94284.09
2018-08-20T02:16:05.939Z,94276.56
2018-08-20T02:18:34.474Z,94281.16
2018-08-20T02:21:02.016Z,94281.02
2018-08-20T02:23:29.514Z,94279.56
2018-08-20T02:25:57.049Z,94283.12
2018-08-20T02:28:24.580Z,94284.15
2018-08-20T02:30:52.078Z,94291.08
2018-08-20T02:33:20.583Z,94281.50
2018-08-20T02:35:48.102Z,94279.36
2018-08-20T02:38:15.978Z,94275.59
2018-08-20T02:40:43.504Z,94276.28
2018-08-20T02:43:11.039Z,94282.06
2018-08-20T02:45:39.433Z,94275.42
2018-08-20T02:48:08.407Z,94276.87
2018-08-20T02:50:36.029Z,94277.40
2018-08-20T02:53:03.666Z,94268.87
2018-08-20T02:55:31.174Z,94276.72
2018-08-20T02:57:58.761Z,94273.59
2018-08-20T03:00:26.306Z,94268.85
2018-08-20T03:02:57.151Z,94273.42
2018-08-20T03:05:24.662Z,94270.77
2018-08-20T03:07:52.204Z,94275.48
2018-08-20T03:10:19.773Z,94271.72
2018-08-20T03:12:47.294Z,94264.58
2018-08-20T03:15:14.826Z,94271.20
2018-08-20T03:17:43.702Z,94267.99
2018-08-20T03:20:11.217Z,94268.75
2018-08-20T03:22:38.753Z,94273.76
2018-08-20T03:25:07.383Z,94279.80
2018-08-20T03:27:34.947Z,94276.11
2018-08-20T03:30:02.562Z,94276.25
2018-08-20T03:32:30.116Z,94272.86
2018-08-20T03:34:57.666Z,94272.56
2018-08-20T03:37:25.174Z,94279.95
2018-08-20T03:39:52.701Z,94272.67
2018-08-20T03:42:20.279Z,94278.48
2018-08-20T03:44:47.802Z,94278.57
2018-08-20T03:47:15.344Z,94277.16
2018-08-20T03:49:42.990Z,94278.95
2018-08-20T03:52:10.837Z,94278.94
2018-08-20T03:54:38.358Z,94276.88
2018-08-20T03:57:05.901Z,94278.51
2018-08-20T03:59:34.522Z,94278.78
2018-08-20T04:02:06.100Z,94285.72
2018-08-20T04:04:33.635Z,94287.20
2018-08-20T04:07:02.434Z,94286.11
2018-08-20T04:09:30.699Z,94279.24
2018-08-20T04:11:58.637Z,94283.52
2018-08-20T04:14:26.293Z,94280.72
2018-08-20T04:16:53.826Z,94282.85
2018-08-20T04:19:21.414Z,94285.30
2018-08-20T04:21:49.186Z,94292.78
2018-08-20T04:24:17.071Z,94282.39
2018-08-20T04:26:44.627Z,94285.20
2018-08-20T04:29:12.134Z,94282.33
2018-08-20T04:31:39.686Z,94280.72
2018-08-20T04:34:07.543Z,94281.30
2018-08-20T04:36:35.262Z,94287.05
2018-08-20T04:39:04.165Z,94281.23
2018-08-20T04:41:32.050Z,94279.16
2018-08-20T04:43:59.703Z,94281.17
2018-08-20T04:46:27.235Z,94278.58
2018-08-20T04:48:54.777Z,94278.36
2018-08-20T04:51:23.404Z,94281.97
2018-08-20T04:53:50.890Z,94287.78
2018-08-20T04:56:18.405Z,94281.76
2018-08-20T04:58:45.946Z,94276.23
2018-08-20T05:01:13.501Z,94278.78
2018-08-20T05:03:41.013Z,94283.20
2018-08-20T05:06:08.551Z,94286.52
2018-08-20T05:08:36.438Z,94285.09
2018-08-20T05:11:04.046Z,94284.96
2018-08-20T05:13:31.564Z,94285.98
2018-08-20T05:15:59.122Z,94287.48
2018-08-20T05:18:26.707Z,94292.56
2018-08-20T05:20:54.378Z,94283.20
2018-08-20T05:23:22.937Z,94285.96
2018-08-20T05:25:50.504Z,94284.63
2018-08-20T05:28:18.037Z,94281.25
2018-08-20T05:30:45.678Z,94280.79
2018-08-20T05:33:14.402Z,94281.55
2018-08-20T05:35:42.267Z,94282.48
2018-08-20T05:38:09.830Z,94277.66
2018-08-20T05:40:37.381Z,94283.50
2018-08-20T05:43:05.339Z,94284.45
2018-08-20T05:45:32.849Z,94284.05
2018-08-20T05:48:00.406Z,94274.93
2018-08-20T05:50:27.932Z,94275.82
2018-08-20T05:52:55.526Z,94277.30
2018-08-20T05:55:23.326Z,94274.93
2018-08-20T05:57:51.492Z,94274.20
2018-08-20T06:00:19.077Z,94277.39
2018-08-20T06:02:46.803Z,94277.47
2018-08-20T06:05:14.385Z,94285.36
2018-08-20T06:07:42.466Z,94294.73
2018-08-20T06:10:10.311Z,94288.95
2018-08-20T06:12:37.881Z,94293.34
2018-08-20T06:15:07.008Z,94300.37
2018-08-20T06:17:34.586Z,94296.38
2018-08-20T06:20:02.113Z,94297.94
2018-08-20T06:22:29.729Z,94293.16
2018-08-20T06:24:57.290Z,94294.45
2018-08-20T06:27:24.810Z,94297.95
2018-08-20T06:29:52.344Z,94293.84
2018-08-20T06:32:19.905Z,94294.02
2018-08-20T06:34:47.446Z,94290.67
2018-08-20T06:37:14.980Z,94297.20
2018-08-20T06:39:42.854Z,94294.55
2018-08-20T06:42:10.382Z,94296.41
2018-08-20T06:44:37.945Z,94305.06
2018-08-20T06:47:05.539Z,94300.44
2018-08-20T06:49:33.111Z,94296.16
2018-08-20T06:52:00.683Z,94296.73
2018-08-20T06:54:28.228Z,94296.14
2018-08-20T06:56:55.777Z,94292.97
2018-08-20T06:59:23.330Z,94295.23
2018-08-20T07:01:50.907Z,94291.55
2018-08-20T07:04:18.493Z,94292.63
2018-08-20T07:06:46.033Z,94296.63
2018-08-20T07:09:13.570Z,94296.33
2018-08-20T07:11:41.141Z,94298.45
2018-08-20T07:14:08.715Z,94296.75
2018-08-20T07:16:36.302Z,94302.19
2018-08-20T07:19:03.834Z,94304.20
2018-08-20T07:21:31.345Z,94306.52
2018-08-20T07:24:00.107Z,94299.67
2018-08-20T07:26:27.638Z,94306.73
2018-08-20T07:28:55.202Z,94301.00
2018-08-20T07:31:22.723Z,94300.59
2018-08-20T07:33:50.305Z,94299.91
2018-08-20T07:36:18.030Z,94296.66
2018-08-20T07:38:45.612Z,94295.05
2018-08-20T07:41:13.164Z,94298.61
2018-08-20T07:43:40.750Z,94297.83
2018-08-20T07:46:08.367Z,94296.68
2018-08-20T07:48:35.875Z,94303.62
2018-08-20T07:51:04.126Z,94301.35
2018-08-20T07:53:31.658Z,94299.95
2018-08-20T07:55:59.261Z,94302.06
2018-08-20T07:58:26.902Z,94303.92
2018-08-20T08:00:54.452Z,94306.38
2018-08-20T08:03:24.337Z,94298.27
2018-08-20T08:05:51.947Z,94303.37
2018-08-20T08:08:19.489Z,94302.58
2018-08-20T08:10:47.153Z,94304.09
2018-08-20T08:13:14.740Z,94303.12
2018-08-20T08:15:42.326Z,94304.02
2018-08-20T08:18:09.846Z,94294.55
2018-08-20T08:20:37.431Z,94296.17
2018-08-20T08:23:05.223Z,94297.73
2018-08-20T08:25:33.035Z,94305.02
2018-08-20T08:28:00.614Z,94301.05
2018-08-20T08:30:28.183Z,94301.05
2018-08-20T08:32:55.741Z,94299.56
2018-08-20T08:35:23.330Z,94301.53
2018-08-20T08:37:50.895Z,94297.92
2018-08-20T08:40:18.442Z,94292.50
2018-08-20T08:42:46.050Z,94290.78
2018-08-20T08:45:15.300Z,94288.01
2018-08-20T08:47:43.515Z,94293.81
2018-08-20T08:50:11.247Z,94286.57
2018-08-20T08:52:38.841Z,94285.13
2018-08-20T08:55:07.319Z,94287.02
2018-08-20T08:57:35.588Z,94288.54
2018-08-20T09:00:04.446Z,94291.92
2018-08-20T09:02:31.998Z,94286.06
2018-08-20T09:04:59.532Z,94288.09
2018-08-20T09:07:27.174Z,94289.55
2018-08-20T09:09:54.736Z,94287.97
2018-08-20T09:12:22.298Z,94283.16
2018-08-20T09:14:49.819Z,94279.67
2018-08-20T09:17:17.487Z,94276.11
2018-08-20T09:19:45.013Z,94273.73
2018-08-20T09:22:13.397Z,94278.95
2018-08-20T09:24:41.010Z,94280.23
2018-08-20T09:27:08.578Z,94282.71
2018-08-20T09:29:36.531Z,94283.06
2018-08-20T09:32:04.088Z,94287.46
2018-08-20T09:34:31.607Z,94286.56
2018-08-20T09:36:59.162Z,94275.84
2018-08-20T09:39:26.684Z,94280.10
2018-08-20T09:41:54.294Z,94282.56
2018-08-20T09:44:21.820Z,94279.73
2018-08-20T09:46:49.399Z,94284.45
2018-08-20T09:49:16.931Z,94280.28
2018-08-20T09:51:44.786Z,94278.66
2018-08-20T09:54:12.341Z,94278.65
2018-08-20T09:56:39.874Z,94273.97
2018-08-20T09:59:07.463Z,94269.54
2018-08-20T10:01:34.999Z,94272.75
2018-08-20T10:04:02.579Z,94269.83
2018-08-20T10:06:30.163Z,94265.52
2018-08-20T10:08:57.695Z,94266.16
2018-08-20T10:11:25.309Z,94263.34
2018-08-20T10:13:52.857Z,94266.20
2018-08-20T10:16:20.421Z,94264.80
2018-08-20T10:18:48.858Z,94267.09
2018-08-20T10:21:16.550Z,94265.23
2018-08-20T10:23:44.115Z,94267.17
2018-08-20T10:26:12.558Z,94263.90
2018-08-20T10:28:40.115Z,94266.41
2018-08-20T10:31:07.647Z,94259.28
2018-08-20T10:33:35.207Z,94266.02
2018-08-20T10:36:02.746Z,94260.45
2018-08-20T10:38:30.343Z,94258.98
2018-08-20T10:40:57.927Z,94257.21
2018-08-20T10:43:25.505Z,94264.59
2018-08-20T10:45:58.758Z,94253.40
2018-08-20T10:48:26.343Z,94253.05
2018-08-20T10:50:53.885Z,94260.74
2018-08-20T10:53:21.454Z,94260.20
2018-08-20T10:55:48.995Z,94262.05
2018-08-20T10:58:16.543Z,94256.95
2018-08-20T11:00:44.094Z,94258.39
2018-08-20T11:03:11.737Z,94263.59
2018-08-20T11:05:39.265Z,94262.23
2018-08-20T11:08:06.834Z,94260.89
2018-08-20T11:10:34.391Z,94253.60
2018-08-20T11:13:01.960Z,94249.36
2018-08-20T11:15:29.544Z,94244.86
2018-08-20T11:17:57.101Z,94247.80
2018-08-20T11:20:24.650Z,94239.07
2018-08-20T11:22:52.163Z,94243.06
2018-08-20T11:25:19.688Z,94237.66
2018-08-20T11:27:47.215Z,94237.51
2018-08-20T11:30:14.985Z,94235.73
2018-08-20T11:32:42.560Z,94237.33
2018-08-20T11:35:10.823Z,94235.41
2018-08-20T11:37:38.366Z,94233.27
2018-08-20T11:40:06.324Z,94228.79
2018-08-20T11:42:33.867Z,94223.63
2018-08-20T11:45:01.381Z,94225.30
2018-08-20T11:47:29.243Z,94217.59
2018-08-20T11:49:56.781Z,94218.31
2018-08-20T11:52:24.753Z,94215.63
2018-08-20T11:54:52.858Z,94213.15
2018-08-20T11:57:20.386Z,94219.19
2018-08-20T11:59:48.881Z,94211.36
2018-08-20T12:02:16.430Z,94210.38
2018-08-20T12:04:44.014Z,94206.35
2018-08-20T12:07:11.559Z,94206.27
2018-08-20T12:09:39.093Z,94200.16
2018-08-20T12:12:06.671Z,94204.75
2018-08-20T12:14:34.303Z,94203.81
2018-08-20T12:17:02.131Z,94202.79
2018-08-20T12:19:29.655Z,94201.09
2018-08-20T12:21:57.210Z,94197.18
2018-08-20T12:24:25.162Z,94207.39
2018-08-20T12:26:52.711Z,94198.86
2018-08-20T12:29:20.246Z,94198.66
2018-08-20T12:31:47.782Z,94195.53
2018-08-20T12:34:15.402Z,94193.16
2018-08-20T12:36:42.943Z,94184.03
2018-08-20T12:39:10.908Z,94190.11
2018-08-20T12:41:38.467Z,94189.77
2018-08-20T12:44:07.071Z,94191.25
2018-08-20T12:46:34.612Z,94189.00
2018-08-20T12:49:02.138Z,94183.64
2018-08-20T12:51:29.684Z,94183.39
2018-08-20T12:53:57.244Z,94187.55
2018-08-20T12:56:24.791Z,94179.16
2018-08-20T12:58:52.811Z,94173.92
2018-08-20T13:01:20.374Z,94177.74
2018-08-20T13:03:48.596Z,94179.56
2018-08-20T13:06:16.204Z,94182.81
2018-08-20T13:08:44.549Z,94183.27
2018-08-20T13:11:12.086Z,94177.61
2018-08-20T13:13:39.638Z,94168.16
2018-08-20T13:16:08.063Z,94168.66
2018-08-20T13:18:35.496Z,94169.02
2018-08-20T13:21:03.065Z,94163.55
2018-08-20T13:23:30.647Z,94162.66
2018-08-20T13:25:58.191Z,94163.13
2018-08-20T13:28:25.722Z,94160.63
2018-08-20T13:30:53.253Z,94154.25
2018-08-20T13:33:21.147Z,94154.45
2018-08-20T13:35:49.387Z,94145.09
2018-08-20T13:38:16.974Z,94144.75
2018-08-20T13:40:44.679Z,94144.38
2018-08-20T13:43:12.243Z,94144.38
2018-08-20T13:45:39.814Z,94139.46
2018-08-20T13:48:07.375Z,94137.72
2018-08-20T13:50:34.972Z,94136.62
2018-08-20T13:53:02.538Z,94141.92
2018-08-20T13:55:30.402Z,94148.31
2018-08-20T13:57:57.959Z,94143.52
2018-08-20T14:00:25.528Z,94141.23
2018-08-20T14:02:53.046Z,94136.51
2018-08-20T14:05:20.620Z,94130.25
2018-08-20T14:07:48.222Z,94126.23
2018-08-20T14:10:15.762Z,94120.83
2018-08-20T14:12:43.550Z,94118.96
2018-08-20T14:15:12.286Z,94117.47
2018-08-20T14:17:40.677Z,94121.88
2018-08-20T14:20:09.669Z,94119.84
2018-08-20T14:22:37.428Z,94117.66
2018-08-20T14:25:05.130Z,94125.02
2018-08-20T14:27:32.715Z,94119.22
2018-08-20T14:30:00.281Z,94120.91
2018-08-20T14:32:28.492Z,94111.47
2018-08-20T14:34:56.050Z,94108.41
2018-08-20T14:37:24.150Z,94107.70
2018-08-20T14:39:51.737Z,94110.58
2018-08-20T14:42:19.349Z,94115.97
2018-08-20T14:44:46.853Z,94104.53
2018-08-20T14:47:14.438Z,94107.01
2018-08-20T14:49:42.007Z,94107.19
2018-08-20T14:52:09.884Z,94095.92
2018-08-20T14:54:38.080Z,94098.03
2018-08-20T14:57:05.806Z,94098.77
2018-08-20T14:59:33.334Z,94093.22
2018-08-20T15:02:00.944Z,94093.58
2018-08-20T15:04:28.421Z,94088.08
2018-08-20T15:07:00.862Z,94084.69
2018-08-20T15:09:29.144Z,94086.15
2018-08-20T15:11:57.078Z,94088.02
2018-08-20T15:14:24.621Z,94086.73
2018-08-20T15:16:52.448Z,94084.63
2018-08-20T15:19:20.329Z,94077.28
2018-08-20T15:21:47.966Z,94077.78
2018-08-20T15:24:16.738Z,94081.22
2018-08-20T15:26:44.549Z,94082.98
2018-08-20T15:29:12.151Z,94073.48
2018-08-20T15:31:39.726Z,94075.31
2018-08-20T15:34:07.286Z,94083.74
2018-08-20T15:36:34.930Z,94078.41
2018-08-20T15:39:02.926Z,94075.64
2018-08-20T15:41:30.467Z,94074.80
2018-08-20T15:43:57.986Z,94079.14
2018-08-20T15:46:25.566Z,94079.33
2018-08-20T15:48:53.138Z,94074.98
2018-08-20T15:51:20.702Z,94074.06
2018-08-20T15:53:48.738Z,94076.44
2018-08-20T15:56:16.286Z,94076.23
2018-08-20T15:58:43.807Z,94076.63
2018-08-20T16:01:11.357Z,94080.05
2018-08-20T16:03:38.867Z,94077.94
2018-08-20T16:06:06.661Z,94079.75
2018-08-20T16:08:34.235Z,94071.55
2018-08-20T16:11:01.776Z,94071.03
2018-08-20T16:13:29.372Z,94069.06
2018-08-20T16:15:57.315Z,94062.70
2018-08-20T16:18:24.871Z,94057.92
2018-08-20T16:20:52.764Z,94059.92
2018-08-20T16:23:20.317Z,94059.00
2018-08-20T16:25:47.839Z,94065.49
2018-08-20T16:28:15.409Z,94056.42
2018-08-20T16:30:43.066Z,94062.50
2018-08-20T16:33:10.666Z,94065.50
2018-08-20T16:35:38.534Z,94068.38
2018-08-20T16:38:06.118Z,94058.33
2018-08-20T16:40:33.731Z,94058.16
2018-08-20T16:43:01.305Z,94060.52
2018-08-20T16:45:28.917Z,94055.67
2018-08-20T16:47:56.527Z,94062.47
2018-08-20T16:50:24.151Z,94053.67
2018-08-20T16:52:51.727Z,94056.44
2018-08-20T16:55:19.335Z,94052.42
2018-08-20T16:57:46.923Z,94055.63
2018-08-20T17:00:14.837Z,94058.07
2018-08-20T17:02:42.988Z,94059.94
2018-08-20T17:05:11.294Z,94065.16
2018-08-20T17:07:38.897Z,94063.48
2018-08-20T17:10:07.264Z,94065.09
2018-08-20T17:12:34.810Z,94065.06
2018-08-20T17:15:02.431Z,94063.97
2018-08-20T17:17:29.998Z,94071.97
2018-08-20T17:19:57.614Z,94076.43
2018-08-20T17:22:25.174Z,94075.03
2018-08-20T17:24:52.757Z,94079.72
2018-08-20T17:27:20.343Z,94079.81
2018-08-20T17:29:47.935Z,94088.92
2018-08-20T17:32:15.476Z,94083.67
2018-08-20T17:34:43.276Z,94081.61
2018-08-20T17:37:11.208Z,94083.88
2018-08-20T17:39:47.146Z,94082.48
2018-08-20T17:42:14.751Z,94092.70
2018-08-20T17:44:42.306Z,94097.00
2018-08-20T17:47:14.387Z,94103.52
2018-08-20T17:49:41.930Z,94092.98
2018-08-20T17:52:10.183Z,94111.45
2018-08-20T17:54:37.829Z,94109.08
2018-08-20T17:57:05.376Z,94107.88
2018-08-20T17:59:32.974Z,94109.81
2018-08-20T18:02:00.663Z,94109.60
2018-08-20T18:04:28.366Z,94109.91
2018-08-20T18:06:55.945Z,94112.61
2018-08-20T18:09:24.104Z,94117.86
2018-08-20T18:11:53.135Z,94116.08
2018-08-20T18:14:21.850Z,94122.10
2018-08-20T18:16:49.413Z,94125.87
2018-08-20T18:19:17.095Z,94124.30
2018-08-20T18:21:44.667Z,94127.05
2018-08-20T18:24:13.050Z,94129.74
2018-08-20T18:26:42.946Z,94130.58
2018-08-20T18:29:10.606Z,94138.41
2018-08-20T18:31:38.199Z,94132.73
2018-08-20T18:34:05.811Z,94136.58
2018-08-20T18:36:33.446Z,94147.08
2018-08-20T18:39:09.874Z,94149.84
2018-08-20T18:41:53.882Z,94153.28
2018-08-20T18:44:22.460Z,94153.05
2018-08-20T18:46:50.502Z,94154.64
2018-08-20T18:49:18.194Z,94157.34
2018-08-20T18:51:46.275Z,94164.34
2018-08-20T18:54:13.928Z,94169.22
2018-08-20T18:56:43.734Z,94178.34
2018-08-20T18:59:11.283Z,94176.73
2018-08-20T19:01:38.907Z,94174.88
2018-08-20T19:04:06.506Z,94180.80
2018-08-20T19:06:34.077Z,94178.12
2018-08-20T19:09:01.658Z,94175.95
2018-08-20T19:11:29.306Z,94180.77
2018-08-20T19:14:01.400Z,94182.91
2018-08-20T19:16:30.473Z,94185.86
2018-08-20T19:18:58.344Z,94185.87
2018-08-20T19:21:27.023Z,94189.62
2018-08-20T19:23:55.460Z,94188.00
2018-08-20T19:26:23.090Z,94188.81
2018-08-20T19:28:50.706Z,94188.80
2018-08-20T19:31:18.274Z,94194.14
2018-08-20T19:33:45.858Z,94196.00
2018-08-20T19:36:13.683Z,94192.27
2018-08-20T19:38:41.232Z,94196.00
2018-08-20T19:41:12.685Z,94197.88
2018-08-20T19:43:45.930Z,94201.89
2018-08-20T19:46:17.742Z,94210.18
2018-08-20T19:48:45.511Z,94210.45
2018-08-20T19:51:13.117Z,94203.27
2018-08-20T19:53:40.672Z,94202.96
2018-08-20T19:56:11.277Z,94204.81
2018-08-20T19:58:41.854Z,94207.16
2018-08-20T20:01:12.330Z,94209.31
2018-08-20T20:03:40.290Z,94213.28
2018-08-20T20:06:08.160Z,94212.20
2018-08-20T20:08:35.776Z,94214.59
2018-08-20T20:11:03.360Z,94214.58
2018-08-20T20:13:32.100Z,94216.19
2018-08-20T20:16:00.735Z,94216.68
2018-08-20T20:18:28.269Z,94213.17
2018-08-20T20:20:56.722Z,94218.26
2018-08-20T20:23:24.234Z,94215.06
2018-08-20T20:25:51.821Z,94219.63
2018-08-20T20:28:19.385Z,94228.42
2018-08-20T20:30:46.964Z,94227.58
2018-08-20T20:33:15.743Z,94238.05
2018-08-20T20:35:43.318Z,94240.75
2018-08-20T20:38:10.886Z,94234.80
2018-08-20T20:40:39.667Z,94234.70
2018-08-20T20:43:07.190Z,94240.05
2018-08-20T20:45:34.746Z,94242.19
2018-08-20T20:48:02.297Z,94244.34
2018-08-20T20:50:30.572Z,94244.25
2018-08-20T20:52:58.102Z,94243.80
2018-08-20T20:55:25.618Z,94247.02
2018-08-20T20:57:53.178Z,94252.39
2018-08-20T21:00:20.730Z,94252.83
2018-08-20T21:02:50.997Z,94250.38
2018-08-20T21:05:18.546Z,94257.06
2018-08-20T21:07:46.129Z,94252.77
2018-08-20T21:10:13.753Z,94252.55
2018-08-20T21:12:41.310Z,94253.86
2018-08-20T21:15:08.830Z,94257.28
2018-08-20T21:17:37.240Z,94264.92
2018-08-20T21:20:05.307Z,94257.42
2018-08-20T21:22:34.479Z,94267.84
2018-08-20T21:25:02.474Z,94269.14
2018-08-20T21:27:30.043Z,94268.58
2018-08-20T21:30:01.875Z,94271.77
2018-08-20T21:32:29.732Z,94261.58
2018-08-20T21:34:57.288Z,94265.86
2018-08-20T21:37:24.907Z,94264.77
2018-08-20T21:39:52.455Z,94258.83
2018-08-20T21:42:22.653Z,94273.97
2018-08-20T21:44:50.238Z,94266.72
2018-08-20T21:47:20.971Z,94271.86
2018-08-20T21:49:48.891Z,94273.91
2018-08-20T21:52:16.435Z,94271.13
2018-08-20T21:54:43.963Z,94267.31
2018-08-20T21:57:11.874Z,94267.13
2018-08-20T21:59:43.926Z,94269.07
2018-08-20T22:02:11.630Z,94268.27
2018-08-20T22:04:39.212Z,94275.65
2018-08-20T22:07:06.843Z,94273.49
2018-08-20T22:09:34.674Z,94280.47
2018-08-20T22:12:02.211Z,94283.31
2018-08-20T22:14:29.795Z,94280.59
2018-08-20T22:16:58.347Z,94279.67
2018-08-20T22:19:25.923Z,94276.81
2018-08-20T22:21:53.458Z,94284.83
2018-08-20T22:24:21.040Z,94285.64
2018-08-20T22:26:56.103Z,94284.24
2018-08-20T22:29:24.558Z,94290.77
2018-08-20T22:31:55.242Z,94288.50
2018-08-20T22:34:24.324Z,94288.85
2018-08-20T22:36:56.434Z,94289.27
2018-08-20T22:39:23.972Z,94290.34
2018-08-20T22:41:51.475Z,94288.33
2018-08-20T22:44:19.012Z,94291.80
2018-08-20T22:46:46.581Z,94294.69
2018-08-20T22:49:14.096Z,94288.24
2018-08-20T22:51:41.665Z,94285.22
2018-08-20T22:54:09.188Z,94287.72
2018-08-20T22:56:36.742Z,94284.72
2018-08-20T22:59:06.146Z,94285.50
2018-08-20T23:01:33.765Z,94289.84
2018-08-20T23:04:01.338Z,94295.38
2018-08-20T23:06:29.241Z,94291.34
2018-08-20T23:08:57.080Z,94291.81
2018-08-20T23:11:36.203Z,94288.38
2018-08-20T23:14:04.108Z,94280.39
2018-08-20T23:16:31.660Z,94283.92
2018-08-20T23:18:59.194Z,94285.05
2018-08-20T23:21:31.311Z,94275.95
2018-08-20T23:23:58.929Z,94279.34
2018-08-20T23:26:26.514Z,94279.34
2018-08-20T23:28:54.062Z,94277.72
2018-08-20T23:31:21.613Z,94280.81
2018-08-20T23:33:49.131Z,94274.06
2018-08-20T23:36:16.696Z,94276.37
2018-08-20T23:38:44.526Z,94274.75
2018-08-20T23:41:12.047Z,94279.57
2018-08-20T23:43:39.721Z,94275.39
2018-08-20T23:46:11.790Z,94283.38
2018-08-20T23:48:39.342Z,94279.02
2018-08-20T23:51:07.031Z,94279.98
2018-08-20T23:53:34.587Z,94276.28
2018-08-20T23:56:02.178Z,94279.16
2018-08-20T23:58:29.708Z,94288.18
